sensor_id;sensor_type;location;lat;lon;timestamp;P1;durP1;ratioP1;P2;durP2;ratioP2
4839;SDS011;2434;48.486;7.964;2023-05-23T00:02:24;24.40;;;11.30;;
4839;SDS011;2434;48.486;7.964;2023-05-23T00:04:54;13.83;;;10.67;;
4839;SDS011;2434;48.486;7.964;2023-05-23T00:07:25;17.10;;;11.70;;
4839;SDS011;2434;48.486;7.964;2023-05-23T00:09:53;16.33;;;12.33;;
4839;SDS011;2434;48.486;7.964;2023-05-23T00:12:22;14.90;;;11.57;;
4839;SDS011;2434;48.486;7.964;2023-05-23T00:14:50;14.63;;;10.83;;
4839;SDS011;2434;48.486;7.964;2023-05-23T00:17:19;13.10;;;11.70;;
4839;SDS011;2434;48.486;7.964;2023-05-23T00:19:50;17.43;;;12.07;;
4839;SDS011;2434;48.486;7.964;2023-05-23T00:22:21;14.67;;;10.80;;
4839;SDS011;2434;48.486;7.964;2023-05-23T00:24:51;14.17;;;11.20;;
4839;SDS011;2434;48.486;7.964;2023-05-23T00:27:19;16.13;;;12.13;;
4839;SDS011;2434;48.486;7.964;2023-05-23T00:29:47;17.27;;;11.20;;
4839;SDS011;2434;48.486;7.964;2023-05-23T00:32:16;14.60;;;11.53;;
4839;SDS011;2434;48.486;7.964;2023-05-23T00:34:44;17.50;;;12.47;;
4839;SDS011;2434;48.486;7.964;2023-05-23T00:37:12;14.93;;;12.10;;
4839;SDS011;2434;48.486;7.964;2023-05-23T00:39:41;15.40;;;12.00;;
4839;SDS011;2434;48.486;7.964;2023-05-23T00:42:11;14.37;;;11.77;;
4839;SDS011;2434;48.486;7.964;2023-05-23T00:44:39;13.83;;;11.80;;
4839;SDS011;2434;48.486;7.964;2023-05-23T00:47:08;14.13;;;11.93;;
4839;SDS011;2434;48.486;7.964;2023-05-23T00:49:39;21.43;;;12.30;;
4839;SDS011;2434;48.486;7.964;2023-05-23T00:52:07;13.77;;;11.23;;
4839;SDS011;2434;48.486;7.964;2023-05-23T00:54:36;14.67;;;11.90;;
4839;SDS011;2434;48.486;7.964;2023-05-23T00:57:07;16.43;;;12.13;;
4839;SDS011;2434;48.486;7.964;2023-05-23T00:59:38;15.40;;;12.50;;
4839;SDS011;2434;48.486;7.964;2023-05-23T01:02:07;14.73;;;11.37;;
4839;SDS011;2434;48.486;7.964;2023-05-23T01:04:36;15.63;;;12.10;;
4839;SDS011;2434;48.486;7.964;2023-05-23T01:07:05;16.83;;;12.80;;
4839;SDS011;2434;48.486;7.964;2023-05-23T01:09:33;17.47;;;12.90;;
4839;SDS011;2434;48.486;7.964;2023-05-23T01:12:04;17.07;;;13.90;;
4839;SDS011;2434;48.486;7.964;2023-05-23T01:14:44;15.47;;;11.87;;
4839;SDS011;2434;48.486;7.964;2023-05-23T01:17:19;17.37;;;12.63;;
4839;SDS011;2434;48.486;7.964;2023-05-23T01:19:55;18.27;;;12.77;;
4839;SDS011;2434;48.486;7.964;2023-05-23T01:22:32;16.50;;;11.83;;
4839;SDS011;2434;48.486;7.964;2023-05-23T01:25:16;17.97;;;12.93;;
4839;SDS011;2434;48.486;7.964;2023-05-23T01:27:56;18.80;;;12.50;;
4839;SDS011;2434;48.486;7.964;2023-05-23T01:30:29;17.87;;;13.67;;
4839;SDS011;2434;48.486;7.964;2023-05-23T01:32:59;15.50;;;11.97;;
4839;SDS011;2434;48.486;7.964;2023-05-23T01:35:28;17.90;;;12.53;;
4839;SDS011;2434;48.486;7.964;2023-05-23T01:37:58;15.57;;;11.90;;
4839;SDS011;2434;48.486;7.964;2023-05-23T01:40:26;15.53;;;12.27;;
4839;SDS011;2434;48.486;7.964;2023-05-23T01:42:57;19.07;;;13.43;;
4839;SDS011;2434;48.486;7.964;2023-05-23T01:45:26;14.63;;;11.90;;
4839;SDS011;2434;48.486;7.964;2023-05-23T01:47:56;19.70;;;12.50;;
4839;SDS011;2434;48.486;7.964;2023-05-23T01:50:26;20.60;;;12.80;;
4839;SDS011;2434;48.486;7.964;2023-05-23T01:52:55;17.40;;;12.10;;
4839;SDS011;2434;48.486;7.964;2023-05-23T01:55:24;19.43;;;13.53;;
4839;SDS011;2434;48.486;7.964;2023-05-23T01:57:53;15.00;;;12.97;;
4839;SDS011;2434;48.486;7.964;2023-05-23T02:00:24;17.13;;;13.20;;
4839;SDS011;2434;48.486;7.964;2023-05-23T02:02:53;17.47;;;14.17;;
4839;SDS011;2434;48.486;7.964;2023-05-23T02:05:21;19.10;;;13.30;;
4839;SDS011;2434;48.486;7.964;2023-05-23T02:07:50;23.00;;;13.10;;
4839;SDS011;2434;48.486;7.964;2023-05-23T02:10:18;14.70;;;11.50;;
4839;SDS011;2434;48.486;7.964;2023-05-23T02:12:47;19.80;;;13.37;;
4839;SDS011;2434;48.486;7.964;2023-05-23T02:15:15;14.10;;;11.70;;
4839;SDS011;2434;48.486;7.964;2023-05-23T02:17:45;16.57;;;13.33;;
4839;SDS011;2434;48.486;7.964;2023-05-23T02:20:15;14.57;;;12.87;;
4839;SDS011;2434;48.486;7.964;2023-05-23T02:22:46;16.40;;;12.80;;
4839;SDS011;2434;48.486;7.964;2023-05-23T02:25:15;17.37;;;12.93;;
4839;SDS011;2434;48.486;7.964;2023-05-23T02:27:43;16.63;;;13.50;;
4839;SDS011;2434;48.486;7.964;2023-05-23T02:30:11;16.07;;;13.10;;
4839;SDS011;2434;48.486;7.964;2023-05-23T02:32:40;20.57;;;13.17;;
4839;SDS011;2434;48.486;7.964;2023-05-23T02:35:10;17.57;;;14.60;;
4839;SDS011;2434;48.486;7.964;2023-05-23T02:37:39;18.17;;;13.70;;
4839;SDS011;2434;48.486;7.964;2023-05-23T02:40:08;15.97;;;13.77;;
4839;SDS011;2434;48.486;7.964;2023-05-23T02:42:37;18.17;;;13.70;;
4839;SDS011;2434;48.486;7.964;2023-05-23T02:45:06;19.90;;;15.67;;
4839;SDS011;2434;48.486;7.964;2023-05-23T02:47:35;23.10;;;14.60;;
4839;SDS011;2434;48.486;7.964;2023-05-23T02:50:04;17.77;;;14.93;;
4839;SDS011;2434;48.486;7.964;2023-05-23T02:52:35;17.53;;;13.70;;
4839;SDS011;2434;48.486;7.964;2023-05-23T02:55:03;20.20;;;15.80;;
4839;SDS011;2434;48.486;7.964;2023-05-23T02:57:38;18.20;;;13.37;;
4839;SDS011;2434;48.486;7.964;2023-05-23T03:00:07;19.30;;;13.80;;
4839;SDS011;2434;48.486;7.964;2023-05-23T03:02:39;18.97;;;14.40;;
4839;SDS011;2434;48.486;7.964;2023-05-23T03:05:08;21.57;;;15.23;;
4839;SDS011;2434;48.486;7.964;2023-05-23T03:07:38;20.37;;;15.63;;
4839;SDS011;2434;48.486;7.964;2023-05-23T03:10:06;18.97;;;14.87;;
4839;SDS011;2434;48.486;7.964;2023-05-23T03:12:36;17.67;;;13.73;;
4839;SDS011;2434;48.486;7.964;2023-05-23T03:15:06;19.20;;;14.30;;
4839;SDS011;2434;48.486;7.964;2023-05-23T03:17:38;17.00;;;14.43;;
4839;SDS011;2434;48.486;7.964;2023-05-23T03:20:06;17.50;;;14.40;;
4839;SDS011;2434;48.486;7.964;2023-05-23T03:22:38;20.13;;;13.23;;
4839;SDS011;2434;48.486;7.964;2023-05-23T03:25:09;19.07;;;14.13;;
4839;SDS011;2434;48.486;7.964;2023-05-23T03:27:37;17.53;;;14.23;;
4839;SDS011;2434;48.486;7.964;2023-05-23T03:30:06;19.17;;;14.63;;
4839;SDS011;2434;48.486;7.964;2023-05-23T03:32:35;16.60;;;14.30;;
4839;SDS011;2434;48.486;7.964;2023-05-23T03:35:04;19.70;;;14.90;;
4839;SDS011;2434;48.486;7.964;2023-05-23T03:37:33;21.90;;;16.13;;
4839;SDS011;2434;48.486;7.964;2023-05-23T03:40:03;21.63;;;16.80;;
4839;SDS011;2434;48.486;7.964;2023-05-23T03:42:33;21.87;;;16.57;;
4839;SDS011;2434;48.486;7.964;2023-05-23T03:45:03;24.00;;;16.90;;
4839;SDS011;2434;48.486;7.964;2023-05-23T03:47:33;20.50;;;17.47;;
4839;SDS011;2434;48.486;7.964;2023-05-23T03:50:01;27.03;;;16.70;;
4839;SDS011;2434;48.486;7.964;2023-05-23T03:52:31;20.30;;;16.57;;
4839;SDS011;2434;48.486;7.964;2023-05-23T03:54:59;23.77;;;18.23;;
4839;SDS011;2434;48.486;7.964;2023-05-23T03:57:30;26.43;;;18.93;;
4839;SDS011;2434;48.486;7.964;2023-05-23T03:59:58;24.27;;;18.33;;
4839;SDS011;2434;48.486;7.964;2023-05-23T04:02:29;25.50;;;18.27;;
4839;SDS011;2434;48.486;7.964;2023-05-23T04:04:58;26.90;;;18.40;;
4839;SDS011;2434;48.486;7.964;2023-05-23T04:07:27;23.77;;;16.90;;
4839;SDS011;2434;48.486;7.964;2023-05-23T04:09:55;29.63;;;19.93;;
4839;SDS011;2434;48.486;7.964;2023-05-23T04:12:24;25.33;;;18.90;;
4839;SDS011;2434;48.486;7.964;2023-05-23T04:14:54;23.73;;;17.67;;
4839;SDS011;2434;48.486;7.964;2023-05-23T04:17:23;24.57;;;18.00;;
4839;SDS011;2434;48.486;7.964;2023-05-23T04:19:55;21.80;;;18.10;;
4839;SDS011;2434;48.486;7.964;2023-05-23T04:22:23;23.60;;;18.03;;
4839;SDS011;2434;48.486;7.964;2023-05-23T04:24:52;25.53;;;18.63;;
4839;SDS011;2434;48.486;7.964;2023-05-23T04:27:21;21.00;;;17.23;;
4839;SDS011;2434;48.486;7.964;2023-05-23T04:29:54;26.63;;;18.30;;
4839;SDS011;2434;48.486;7.964;2023-05-23T04:32:23;25.67;;;18.57;;
4839;SDS011;2434;48.486;7.964;2023-05-23T04:34:52;24.63;;;19.97;;
4839;SDS011;2434;48.486;7.964;2023-05-23T04:37:23;23.00;;;18.13;;
4839;SDS011;2434;48.486;7.964;2023-05-23T04:39:52;22.43;;;18.00;;
4839;SDS011;2434;48.486;7.964;2023-05-23T04:42:40;25.90;;;18.57;;
4839;SDS011;2434;48.486;7.964;2023-05-23T04:45:37;28.77;;;21.77;;
4839;SDS011;2434;48.486;7.964;2023-05-23T04:48:23;26.60;;;21.17;;
4839;SDS011;2434;48.486;7.964;2023-05-23T04:50:54;28.60;;;20.77;;
4839;SDS011;2434;48.486;7.964;2023-05-23T04:53:28;27.73;;;19.90;;
4839;SDS011;2434;48.486;7.964;2023-05-23T04:55:57;23.70;;;18.80;;
4839;SDS011;2434;48.486;7.964;2023-05-23T04:58:26;28.27;;;20.00;;
4839;SDS011;2434;48.486;7.964;2023-05-23T05:01:01;29.03;;;20.00;;
4839;SDS011;2434;48.486;7.964;2023-05-23T05:03:30;32.70;;;24.10;;
4839;SDS011;2434;48.486;7.964;2023-05-23T05:05:59;35.90;;;24.03;;
4839;SDS011;2434;48.486;7.964;2023-05-23T05:08:27;34.03;;;24.30;;
4839;SDS011;2434;48.486;7.964;2023-05-23T05:10:56;37.07;;;25.70;;
4839;SDS011;2434;48.486;7.964;2023-05-23T05:13:24;36.03;;;25.57;;
4839;SDS011;2434;48.486;7.964;2023-05-23T05:15:54;36.77;;;23.60;;
4839;SDS011;2434;48.486;7.964;2023-05-23T05:18:26;35.80;;;24.43;;
4839;SDS011;2434;48.486;7.964;2023-05-23T05:20:56;39.13;;;25.73;;
4839;SDS011;2434;48.486;7.964;2023-05-23T05:23:25;33.10;;;24.13;;
4839;SDS011;2434;48.486;7.964;2023-05-23T05:25:55;36.57;;;24.10;;
4839;SDS011;2434;48.486;7.964;2023-05-23T05:28:24;33.40;;;24.10;;
4839;SDS011;2434;48.486;7.964;2023-05-23T05:30:52;31.57;;;23.83;;
4839;SDS011;2434;48.486;7.964;2023-05-23T05:33:21;34.77;;;24.17;;
4839;SDS011;2434;48.486;7.964;2023-05-23T05:36:06;35.17;;;23.80;;
4839;SDS011;2434;48.486;7.964;2023-05-23T05:38:35;33.60;;;25.50;;
4839;SDS011;2434;48.486;7.964;2023-05-23T05:41:03;39.93;;;26.17;;
4839;SDS011;2434;48.486;7.964;2023-05-23T05:43:38;34.37;;;25.90;;
4839;SDS011;2434;48.486;7.964;2023-05-23T05:46:07;33.93;;;26.30;;
4839;SDS011;2434;48.486;7.964;2023-05-23T05:48:36;31.63;;;24.40;;
4839;SDS011;2434;48.486;7.964;2023-05-23T05:51:08;35.50;;;24.83;;
4839;SDS011;2434;48.486;7.964;2023-05-23T05:53:38;41.93;;;26.73;;
4839;SDS011;2434;48.486;7.964;2023-05-23T05:56:06;35.07;;;25.40;;
4839;SDS011;2434;48.486;7.964;2023-05-23T05:58:37;35.80;;;26.10;;
4839;SDS011;2434;48.486;7.964;2023-05-23T06:01:07;43.97;;;28.40;;
4839;SDS011;2434;48.486;7.964;2023-05-23T06:03:35;45.47;;;28.30;;
4839;SDS011;2434;48.486;7.964;2023-05-23T06:06:04;38.13;;;28.63;;
4839;SDS011;2434;48.486;7.964;2023-05-23T06:08:37;39.43;;;28.77;;
4839;SDS011;2434;48.486;7.964;2023-05-23T06:11:09;40.00;;;30.37;;
4839;SDS011;2434;48.486;7.964;2023-05-23T06:13:38;46.73;;;34.07;;
4839;SDS011;2434;48.486;7.964;2023-05-23T06:16:06;44.40;;;31.23;;
4839;SDS011;2434;48.486;7.964;2023-05-23T06:18:35;46.60;;;32.30;;
4839;SDS011;2434;48.486;7.964;2023-05-23T06:21:04;45.20;;;33.20;;
4839;SDS011;2434;48.486;7.964;2023-05-23T06:23:34;43.33;;;32.30;;
4839;SDS011;2434;48.486;7.964;2023-05-23T06:26:04;48.23;;;32.73;;
4839;SDS011;2434;48.486;7.964;2023-05-23T06:28:36;44.23;;;33.37;;
4839;SDS011;2434;48.486;7.964;2023-05-23T06:31:05;52.10;;;34.33;;
4839;SDS011;2434;48.486;7.964;2023-05-23T06:33:35;56.47;;;34.93;;
4839;SDS011;2434;48.486;7.964;2023-05-23T06:36:04;44.50;;;32.80;;
4839;SDS011;2434;48.486;7.964;2023-05-23T06:38:32;51.43;;;33.80;;
4839;SDS011;2434;48.486;7.964;2023-05-23T06:41:00;50.80;;;34.20;;
4839;SDS011;2434;48.486;7.964;2023-05-23T06:43:32;46.23;;;36.00;;
4839;SDS011;2434;48.486;7.964;2023-05-23T06:46:15;57.97;;;36.33;;
4839;SDS011;2434;48.486;7.964;2023-05-23T06:48:43;50.90;;;34.83;;
4839;SDS011;2434;48.486;7.964;2023-05-23T06:51:12;50.10;;;36.30;;
4839;SDS011;2434;48.486;7.964;2023-05-23T06:53:41;45.53;;;34.93;;
4839;SDS011;2434;48.486;7.964;2023-05-23T06:56:10;45.77;;;36.17;;
4839;SDS011;2434;48.486;7.964;2023-05-23T06:58:50;49.17;;;36.73;;
4839;SDS011;2434;48.486;7.964;2023-05-23T07:01:20;51.30;;;38.47;;
4839;SDS011;2434;48.486;7.964;2023-05-23T07:03:49;60.60;;;40.80;;
4839;SDS011;2434;48.486;7.964;2023-05-23T07:06:17;51.07;;;39.70;;
4839;SDS011;2434;48.486;7.964;2023-05-23T07:08:46;55.67;;;38.77;;
4839;SDS011;2434;48.486;7.964;2023-05-23T07:11:14;53.77;;;39.27;;
4839;SDS011;2434;48.486;7.964;2023-05-23T07:13:50;49.60;;;38.27;;
4839;SDS011;2434;48.486;7.964;2023-05-23T07:16:29;52.00;;;36.80;;
4839;SDS011;2434;48.486;7.964;2023-05-23T07:19:04;54.70;;;38.00;;
4839;SDS011;2434;48.486;7.964;2023-05-23T07:21:38;51.60;;;37.43;;
4839;SDS011;2434;48.486;7.964;2023-05-23T07:24:07;54.23;;;39.53;;
4839;SDS011;2434;48.486;7.964;2023-05-23T07:26:36;53.50;;;37.40;;
4839;SDS011;2434;48.486;7.964;2023-05-23T07:29:06;51.53;;;37.17;;
4839;SDS011;2434;48.486;7.964;2023-05-23T07:31:35;47.10;;;37.37;;
4839;SDS011;2434;48.486;7.964;2023-05-23T07:34:03;52.10;;;37.97;;
4839;SDS011;2434;48.486;7.964;2023-05-23T07:36:40;60.90;;;40.27;;
4839;SDS011;2434;48.486;7.964;2023-05-23T07:39:10;60.40;;;37.17;;
4839;SDS011;2434;48.486;7.964;2023-05-23T07:41:40;47.90;;;37.97;;
4839;SDS011;2434;48.486;7.964;2023-05-23T07:44:09;53.63;;;37.33;;
4839;SDS011;2434;48.486;7.964;2023-05-23T07:46:38;56.00;;;38.37;;
4839;SDS011;2434;48.486;7.964;2023-05-23T07:49:07;50.63;;;38.03;;
4839;SDS011;2434;48.486;7.964;2023-05-23T07:51:36;50.43;;;38.87;;
4839;SDS011;2434;48.486;7.964;2023-05-23T07:54:05;65.97;;;40.10;;
4839;SDS011;2434;48.486;7.964;2023-05-23T07:56:37;52.47;;;36.97;;
4839;SDS011;2434;48.486;7.964;2023-05-23T07:59:06;51.93;;;35.30;;
4839;SDS011;2434;48.486;7.964;2023-05-23T08:01:36;46.97;;;35.70;;
4839;SDS011;2434;48.486;7.964;2023-05-23T08:04:06;43.93;;;31.37;;
4839;SDS011;2434;48.486;7.964;2023-05-23T08:06:42;43.80;;;32.10;;
4839;SDS011;2434;48.486;7.964;2023-05-23T08:09:50;47.50;;;32.80;;
4839;SDS011;2434;48.486;7.964;2023-05-23T08:12:19;37.90;;;30.10;;
4839;SDS011;2434;48.486;7.964;2023-05-23T08:14:56;41.30;;;29.30;;
4839;SDS011;2434;48.486;7.964;2023-05-23T08:17:33;31.20;;;21.83;;
4839;SDS011;2434;48.486;7.964;2023-05-23T08:20:02;27.97;;;21.80;;
4839;SDS011;2434;48.486;7.964;2023-05-23T08:22:31;28.97;;;21.60;;
4839;SDS011;2434;48.486;7.964;2023-05-23T08:24:59;23.43;;;20.77;;
4839;SDS011;2434;48.486;7.964;2023-05-23T08:27:30;29.43;;;21.97;;
4839;SDS011;2434;48.486;7.964;2023-05-23T08:30:05;25.40;;;20.97;;
4839;SDS011;2434;48.486;7.964;2023-05-23T08:32:37;32.07;;;20.30;;
4839;SDS011;2434;48.486;7.964;2023-05-23T08:35:06;24.60;;;21.57;;
4839;SDS011;2434;48.486;7.964;2023-05-23T08:37:36;25.47;;;20.87;;
4839;SDS011;2434;48.486;7.964;2023-05-23T08:40:05;27.07;;;21.80;;
4839;SDS011;2434;48.486;7.964;2023-05-23T08:42:46;28.80;;;22.03;;
4839;SDS011;2434;48.486;7.964;2023-05-23T08:45:15;26.30;;;22.73;;
4839;SDS011;2434;48.486;7.964;2023-05-23T08:47:46;23.60;;;20.17;;
4839;SDS011;2434;48.486;7.964;2023-05-23T08:50:17;30.53;;;22.70;;
4839;SDS011;2434;48.486;7.964;2023-05-23T08:52:54;27.43;;;22.47;;
4839;SDS011;2434;48.486;7.964;2023-05-23T08:55:26;30.83;;;25.37;;
4839;SDS011;2434;48.486;7.964;2023-05-23T08:57:58;28.20;;;23.40;;
4839;SDS011;2434;48.486;7.964;2023-05-23T09:00:46;32.50;;;25.47;;
4839;SDS011;2434;48.486;7.964;2023-05-23T09:03:18;34.33;;;26.33;;
4839;SDS011;2434;48.486;7.964;2023-05-23T09:06:06;34.53;;;28.07;;
4839;SDS011;2434;48.486;7.964;2023-05-23T09:08:37;31.90;;;27.00;;
4839;SDS011;2434;48.486;7.964;2023-05-23T09:11:06;32.03;;;25.37;;
4839;SDS011;2434;48.486;7.964;2023-05-23T09:13:39;32.67;;;27.10;;
4839;SDS011;2434;48.486;7.964;2023-05-23T09:16:09;34.33;;;26.67;;
4839;SDS011;2434;48.486;7.964;2023-05-23T09:18:44;31.57;;;26.17;;
4839;SDS011;2434;48.486;7.964;2023-05-23T09:21:15;28.97;;;24.20;;
4839;SDS011;2434;48.486;7.964;2023-05-23T09:23:52;30.53;;;26.20;;
4839;SDS011;2434;48.486;7.964;2023-05-23T09:26:23;29.50;;;24.97;;
4839;SDS011;2434;48.486;7.964;2023-05-23T09:28:55;25.83;;;21.57;;
4839;SDS011;2434;48.486;7.964;2023-05-23T09:31:25;31.20;;;23.20;;
4839;SDS011;2434;48.486;7.964;2023-05-23T09:33:57;24.10;;;20.93;;
4839;SDS011;2434;48.486;7.964;2023-05-23T09:36:27;27.67;;;21.93;;
4839;SDS011;2434;48.486;7.964;2023-05-23T09:39:00;33.20;;;18.67;;
4839;SDS011;2434;48.486;7.964;2023-05-23T09:41:32;27.33;;;20.77;;
4839;SDS011;2434;48.486;7.964;2023-05-23T09:44:04;29.27;;;20.57;;
4839;SDS011;2434;48.486;7.964;2023-05-23T09:46:34;21.77;;;19.37;;
4839;SDS011;2434;48.486;7.964;2023-05-23T09:49:15;23.60;;;19.57;;
4839;SDS011;2434;48.486;7.964;2023-05-23T09:51:55;25.60;;;19.83;;
4839;SDS011;2434;48.486;7.964;2023-05-23T09:54:24;22.10;;;19.33;;
4839;SDS011;2434;48.486;7.964;2023-05-23T09:56:53;22.40;;;18.97;;
4839;SDS011;2434;48.486;7.964;2023-05-23T09:59:23;23.43;;;18.17;;
4839;SDS011;2434;48.486;7.964;2023-05-23T10:01:56;27.57;;;17.30;;
4839;SDS011;2434;48.486;7.964;2023-05-23T10:04:29;33.90;;;17.33;;
4839;SDS011;2434;48.486;7.964;2023-05-23T10:07:04;21.43;;;17.13;;
4839;SDS011;2434;48.486;7.964;2023-05-23T10:09:41;21.50;;;17.27;;
4839;SDS011;2434;48.486;7.964;2023-05-23T10:12:34;18.40;;;15.57;;
4839;SDS011;2434;48.486;7.964;2023-05-23T10:15:08;23.50;;;16.50;;
4839;SDS011;2434;48.486;7.964;2023-05-23T10:17:39;19.70;;;15.73;;
4839;SDS011;2434;48.486;7.964;2023-05-23T10:20:29;24.00;;;15.90;;
4839;SDS011;2434;48.486;7.964;2023-05-23T10:22:59;22.50;;;16.53;;
4839;SDS011;2434;48.486;7.964;2023-05-23T10:25:30;24.97;;;16.00;;
4839;SDS011;2434;48.486;7.964;2023-05-23T10:28:01;18.50;;;15.00;;
4839;SDS011;2434;48.486;7.964;2023-05-23T10:30:30;22.00;;;15.90;;
4839;SDS011;2434;48.486;7.964;2023-05-23T10:32:59;22.07;;;16.20;;
4839;SDS011;2434;48.486;7.964;2023-05-23T10:35:36;21.13;;;14.23;;
4839;SDS011;2434;48.486;7.964;2023-05-23T10:38:13;27.90;;;16.43;;
4839;SDS011;2434;48.486;7.964;2023-05-23T10:40:55;19.47;;;16.17;;
4839;SDS011;2434;48.486;7.964;2023-05-23T10:43:28;21.53;;;15.20;;
4839;SDS011;2434;48.486;7.964;2023-05-23T10:46:01;20.97;;;14.60;;
4839;SDS011;2434;48.486;7.964;2023-05-23T10:48:33;22.80;;;14.90;;
4839;SDS011;2434;48.486;7.964;2023-05-23T10:51:09;19.87;;;14.77;;
4839;SDS011;2434;48.486;7.964;2023-05-23T10:53:41;22.83;;;13.97;;
4839;SDS011;2434;48.486;7.964;2023-05-23T10:56:17;19.00;;;13.60;;
4839;SDS011;2434;48.486;7.964;2023-05-23T10:58:50;17.27;;;14.87;;
4839;SDS011;2434;48.486;7.964;2023-05-23T11:01:19;21.40;;;15.60;;
4839;SDS011;2434;48.486;7.964;2023-05-23T11:03:49;20.23;;;14.13;;
4839;SDS011;2434;48.486;7.964;2023-05-23T11:06:29;17.97;;;15.10;;
4839;SDS011;2434;48.486;7.964;2023-05-23T11:09:02;21.10;;;14.60;;
4839;SDS011;2434;48.486;7.964;2023-05-23T11:14:31;20.63;;;15.30;;
4839;SDS011;2434;48.486;7.964;2023-05-23T11:17:14;19.17;;;14.17;;
4839;SDS011;2434;48.486;7.964;2023-05-23T11:22:28;20.93;;;15.50;;
4839;SDS011;2434;48.486;7.964;2023-05-23T11:24:58;18.60;;;14.10;;
4839;SDS011;2434;48.486;7.964;2023-05-23T11:27:33;17.50;;;14.40;;
4839;SDS011;2434;48.486;7.964;2023-05-23T11:30:03;18.43;;;14.33;;
4839;SDS011;2434;48.486;7.964;2023-05-23T11:32:34;17.57;;;13.80;;
4839;SDS011;2434;48.486;7.964;2023-05-23T11:35:04;16.90;;;12.53;;
4839;SDS011;2434;48.486;7.964;2023-05-23T11:37:36;20.40;;;12.27;;
4839;SDS011;2434;48.486;7.964;2023-05-23T11:40:25;16.60;;;13.13;;
4839;SDS011;2434;48.486;7.964;2023-05-23T11:42:54;16.80;;;13.97;;
4839;SDS011;2434;48.486;7.964;2023-05-23T11:45:23;13.43;;;11.97;;
4839;SDS011;2434;48.486;7.964;2023-05-23T11:47:52;17.23;;;13.47;;
4839;SDS011;2434;48.486;7.964;2023-05-23T11:50:21;22.70;;;12.90;;
4839;SDS011;2434;48.486;7.964;2023-05-23T11:52:53;20.17;;;13.13;;
4839;SDS011;2434;48.486;7.964;2023-05-23T11:55:21;16.10;;;13.30;;
4839;SDS011;2434;48.486;7.964;2023-05-23T11:57:50;13.80;;;12.27;;
4839;SDS011;2434;48.486;7.964;2023-05-23T12:00:23;13.73;;;11.60;;
4839;SDS011;2434;48.486;7.964;2023-05-23T12:02:52;15.80;;;12.37;;
4839;SDS011;2434;48.486;7.964;2023-05-23T12:05:20;16.13;;;11.50;;
4839;SDS011;2434;48.486;7.964;2023-05-23T12:07:48;15.20;;;11.87;;
4839;SDS011;2434;48.486;7.964;2023-05-23T12:10:18;14.97;;;11.20;;
4839;SDS011;2434;48.486;7.964;2023-05-23T12:12:50;15.67;;;11.30;;
4839;SDS011;2434;48.486;7.964;2023-05-23T12:15:18;12.10;;;10.73;;
4839;SDS011;2434;48.486;7.964;2023-05-23T12:17:52;16.50;;;11.03;;
4839;SDS011;2434;48.486;7.964;2023-05-23T12:20:22;11.73;;;10.27;;
4839;SDS011;2434;48.486;7.964;2023-05-23T12:22:55;19.47;;;12.17;;
4839;SDS011;2434;48.486;7.964;2023-05-23T12:25:25;14.10;;;10.80;;
4839;SDS011;2434;48.486;7.964;2023-05-23T12:27:55;14.23;;;10.73;;
4839;SDS011;2434;48.486;7.964;2023-05-23T12:30:23;14.40;;;11.50;;
4839;SDS011;2434;48.486;7.964;2023-05-23T12:32:51;12.23;;;9.33;;
4839;SDS011;2434;48.486;7.964;2023-05-23T12:35:20;13.33;;;10.20;;
4839;SDS011;2434;48.486;7.964;2023-05-23T12:37:55;13.40;;;9.83;;
4839;SDS011;2434;48.486;7.964;2023-05-23T12:40:25;13.70;;;10.53;;
4839;SDS011;2434;48.486;7.964;2023-05-23T12:42:54;10.50;;;9.10;;
4839;SDS011;2434;48.486;7.964;2023-05-23T12:45:23;10.70;;;9.43;;
4839;SDS011;2434;48.486;7.964;2023-05-23T12:47:59;12.83;;;10.33;;
4839;SDS011;2434;48.486;7.964;2023-05-23T12:50:28;11.63;;;9.60;;
4839;SDS011;2434;48.486;7.964;2023-05-23T12:52:57;10.90;;;9.40;;
4839;SDS011;2434;48.486;7.964;2023-05-23T12:55:27;13.23;;;9.43;;
4839;SDS011;2434;48.486;7.964;2023-05-23T12:57:55;12.17;;;8.63;;
4839;SDS011;2434;48.486;7.964;2023-05-23T13:00:24;13.47;;;9.70;;
4839;SDS011;2434;48.486;7.964;2023-05-23T13:02:52;13.00;;;8.70;;
4839;SDS011;2434;48.486;7.964;2023-05-23T13:05:21;11.37;;;8.13;;
4839;SDS011;2434;48.486;7.964;2023-05-23T13:07:50;10.10;;;8.37;;
4839;SDS011;2434;48.486;7.964;2023-05-23T13:10:18;8.50;;;7.03;;
4839;SDS011;2434;48.486;7.964;2023-05-23T13:12:48;11.10;;;8.37;;
4839;SDS011;2434;48.486;7.964;2023-05-23T13:15:16;11.00;;;8.27;;
4839;SDS011;2434;48.486;7.964;2023-05-23T13:17:44;9.90;;;8.37;;
4839;SDS011;2434;48.486;7.964;2023-05-23T13:20:16;10.40;;;8.17;;
4839;SDS011;2434;48.486;7.964;2023-05-23T13:22:44;11.83;;;7.30;;
4839;SDS011;2434;48.486;7.964;2023-05-23T13:25:12;8.57;;;6.97;;
4839;SDS011;2434;48.486;7.964;2023-05-23T13:27:41;9.43;;;6.93;;
4839;SDS011;2434;48.486;7.964;2023-05-23T13:30:13;7.57;;;6.43;;
4839;SDS011;2434;48.486;7.964;2023-05-23T13:32:42;13.03;;;7.17;;
4839;SDS011;2434;48.486;7.964;2023-05-23T13:35:10;8.40;;;6.50;;
4839;SDS011;2434;48.486;7.964;2023-05-23T13:37:39;13.00;;;7.17;;
4839;SDS011;2434;48.486;7.964;2023-05-23T13:40:10;6.80;;;6.10;;
4839;SDS011;2434;48.486;7.964;2023-05-23T13:42:40;8.40;;;6.50;;
4839;SDS011;2434;48.486;7.964;2023-05-23T13:45:08;8.20;;;6.47;;
4839;SDS011;2434;48.486;7.964;2023-05-23T13:47:38;7.03;;;6.33;;
4839;SDS011;2434;48.486;7.964;2023-05-23T13:50:07;11.53;;;6.20;;
4839;SDS011;2434;48.486;7.964;2023-05-23T13:52:36;9.27;;;6.70;;
4839;SDS011;2434;48.486;7.964;2023-05-23T13:55:09;8.53;;;5.70;;
4839;SDS011;2434;48.486;7.964;2023-05-23T13:57:38;8.60;;;6.70;;
4839;SDS011;2434;48.486;7.964;2023-05-23T14:00:07;7.07;;;5.50;;
4839;SDS011;2434;48.486;7.964;2023-05-23T14:02:35;10.17;;;5.97;;
4839;SDS011;2434;48.486;7.964;2023-05-23T14:05:07;6.23;;;5.63;;
4839;SDS011;2434;48.486;7.964;2023-05-23T14:07:36;7.00;;;5.30;;
4839;SDS011;2434;48.486;7.964;2023-05-23T14:10:05;5.83;;;5.23;;
4839;SDS011;2434;48.486;7.964;2023-05-23T14:12:34;7.20;;;6.00;;
4839;SDS011;2434;48.486;7.964;2023-05-23T14:15:03;7.70;;;5.23;;
4839;SDS011;2434;48.486;7.964;2023-05-23T14:17:32;6.03;;;5.43;;
4839;SDS011;2434;48.486;7.964;2023-05-23T14:20:00;6.40;;;5.70;;
4839;SDS011;2434;48.486;7.964;2023-05-23T14:22:30;6.80;;;5.40;;
4839;SDS011;2434;48.486;7.964;2023-05-23T14:24:58;8.80;;;6.10;;
4839;SDS011;2434;48.486;7.964;2023-05-23T14:27:27;6.80;;;5.47;;
4839;SDS011;2434;48.486;7.964;2023-05-23T14:29:55;8.90;;;5.53;;
4839;SDS011;2434;48.486;7.964;2023-05-23T14:32:24;6.83;;;5.60;;
4839;SDS011;2434;48.486;7.964;2023-05-23T14:34:52;7.90;;;5.43;;
4839;SDS011;2434;48.486;7.964;2023-05-23T14:37:20;6.33;;;5.07;;
4839;SDS011;2434;48.486;7.964;2023-05-23T14:39:51;8.27;;;5.10;;
4839;SDS011;2434;48.486;7.964;2023-05-23T14:42:20;5.20;;;4.70;;
4839;SDS011;2434;48.486;7.964;2023-05-23T14:44:48;5.37;;;4.80;;
4839;SDS011;2434;48.486;7.964;2023-05-23T14:47:16;4.80;;;4.20;;
4839;SDS011;2434;48.486;7.964;2023-05-23T14:49:46;4.00;;;3.60;;
4839;SDS011;2434;48.486;7.964;2023-05-23T14:52:15;6.20;;;4.20;;
4839;SDS011;2434;48.486;7.964;2023-05-23T14:54:44;5.23;;;4.20;;
4839;SDS011;2434;48.486;7.964;2023-05-23T14:57:13;4.87;;;4.37;;
4839;SDS011;2434;48.486;7.964;2023-05-23T14:59:42;5.30;;;4.00;;
4839;SDS011;2434;48.486;7.964;2023-05-23T15:02:10;7.60;;;3.70;;
4839;SDS011;2434;48.486;7.964;2023-05-23T15:04:38;4.50;;;3.93;;
4839;SDS011;2434;48.486;7.964;2023-05-23T15:07:07;4.53;;;4.03;;
4839;SDS011;2434;48.486;7.964;2023-05-23T15:09:35;4.73;;;3.40;;
4839;SDS011;2434;48.486;7.964;2023-05-23T15:12:04;4.07;;;3.60;;
4839;SDS011;2434;48.486;7.964;2023-05-23T15:14:36;4.67;;;4.10;;
4839;SDS011;2434;48.486;7.964;2023-05-23T15:17:05;5.47;;;4.60;;
4839;SDS011;2434;48.486;7.964;2023-05-23T15:19:34;5.27;;;3.40;;
4839;SDS011;2434;48.486;7.964;2023-05-23T15:22:03;4.07;;;3.67;;